Time;durP1;ratioP1;P1;durP2;ratioP2;P2;SDS_P1;SDS_P2;PMS_P1;PMS_P2;Temp;Humidity;BMP_temperature;BMP_pressure;BME280_temperature;BME280_humidity;BME280_pressure;Samples;Min_cycle;Max_cycle;Signal;HPM_P1;HPM_P2
2021/06/08 00:02:11;;;;;;;17.35;15.38;;;;;;;14.72;100.00;96961.03;4966925;28;20202;-69
2021/06/08 00:04:36;;;;;;;16.02;14.43;;;;;;;14.86;100.00;96982.53;4966987;28;20517;-68
2021/06/08 00:07:14;;;;;;;18.30;14.93;;;;;;;14.80;100.00;96975.78;4984335;28;20044;-68
2021/06/08 00:09:40;;;;;;;16.85;14.90;;;;;;;14.00;100.00;96857.50;4986368;28;20441;-67
2021/06/08 00:12:06;;;;;;;18.33;14.25;;;;;;;14.36;100.00;96903.72;4983996;28;20037;-69
2021/06/08 00:14:31;;;;;;;19.10;15.80;;;;;;;14.13;100.00;96899.69;4984295;28;20497;-69
2021/06/08 00:16:57;;;;;;;20.77;16.10;;;;;;;14.68;100.00;96973.41;4985922;28;20105;-70
2021/06/08 00:19:22;;;;;;;22.45;15.43;;;;;;;14.37;100.00;96927.59;4985862;28;20034;-69
2021/06/08 00:21:48;;;;;;;18.23;14.70;;;;;;;14.63;100.00;96965.44;4985329;28;20070;-68
2021/06/08 00:24:13;;;;;;;20.45;15.60;;;;;;;14.61;100.00;96965.81;4986050;28;20042;-67
2021/06/08 00:26:39;;;;;;;20.63;15.35;;;;;;;14.42;100.00;96918.03;4985631;28;20580;-67
2021/06/08 00:29:04;;;;;;;16.55;14.63;;;;;;;14.23;100.00;96915.59;4985358;28;20089;-69
2021/06/08 00:31:30;;;;;;;18.42;15.35;;;;;;;14.42;100.00;96934.75;4985135;28;20038;-69
2021/06/08 00:33:55;;;;;;;16.00;14.38;;;;;;;14.62;100.00;96950.69;4983816;28;20121;-69
2021/06/08 00:36:22;;;;;;;17.50;15.63;;;;;;;14.63;100.00;96968.22;4985078;28;20034;-70
2021/06/08 00:38:47;;;;;;;16.90;14.18;;;;;;;14.32;100.00;96919.63;4983995;28;20070;-69
2021/06/08 00:41:13;;;;;;;19.92;14.60;;;;;;;14.61;100.00;96959.44;4983816;28;20140;-70
2021/06/08 00:43:39;;;;;;;16.85;14.55;;;;;;;14.35;100.00;96952.25;4984105;28;20096;-68
2021/06/08 00:46:04;;;;;;;22.90;15.40;;;;;;;14.59;100.00;96956.28;4984867;28;20058;-68
2021/06/08 00:48:30;;;;;;;18.45;16.55;;;;;;;14.53;100.00;96963.41;4983598;28;20162;-68
2021/06/08 00:50:56;;;;;;;19.55;16.23;;;;;;;14.58;100.00;96951.88;4984988;28;20555;-68
2021/06/08 00:53:23;;;;;;;17.85;15.27;;;;;;;13.93;100.00;96873.41;4985258;28;20045;-68
2021/06/08 00:55:50;;;;;;;18.52;15.40;;;;;;;14.49;100.00;96945.91;4984860;28;20120;-69
2021/06/08 00:58:16;;;;;;;20.80;14.93;;;;;;;14.43;100.00;96941.94;4985181;28;20026;-67
2021/06/08 01:00:41;;;;;;;19.67;15.43;;;;;;;14.29;100.00;96947.50;4984965;28;20038;-67
2021/06/08 01:03:07;;;;;;;17.48;14.73;;;;;;;14.16;100.00;96921.19;4985403;28;20038;-68
2021/06/08 01:05:32;;;;;;;19.30;14.75;;;;;;;13.67;100.00;96844.72;4973984;28;20043;-67
2021/06/08 01:07:58;;;;;;;18.33;14.85;;;;;;;12.22;100.00;96847.22;4964308;28;20126;-68
2021/06/08 01:10:24;;;;;;;16.20;14.25;;;;;;;14.37;100.00;96946.31;4964815;28;20105;-68
2021/06/08 01:12:49;;;;;;;18.52;15.20;;;;;;;13.76;100.00;96860.25;4963838;28;20031;-68
2021/06/08 01:15:15;;;;;;;18.65;16.10;;;;;;;14.25;100.00;96935.53;4964927;28;20034;-68
2021/06/08 01:17:40;;;;;;;20.08;15.30;;;;;;;14.32;100.00;96935.56;4963760;28;20462;-68
2021/06/08 01:20:08;;;;;;;18.65;15.07;;;;;;;13.44;100.00;96888.81;4964911;28;20089;-68
2021/06/08 01:22:35;;;;;;;20.17;16.95;;;;;;;13.72;100.00;96940.19;4964157;28;20101;-68
2021/06/08 01:25:00;;;;;;;18.15;16.25;;;;;;;13.96;100.00;96945.03;4963701;28;20030;-68
2021/06/08 01:27:26;;;;;;;18.00;15.88;;;;;;;13.90;100.00;96941.81;4963189;28;20062;-68
2021/06/08 01:29:53;;;;;;;18.52;16.05;;;;;;;13.78;100.00;96924.69;4963580;28;20548;-69
2021/06/08 01:32:22;;;;;;;29.67;17.45;;;;;;;13.96;100.00;96933.91;4964629;28;20419;-67
2021/06/08 01:34:49;;;;;;;20.83;16.45;;;;;;;14.04;100.00;96935.47;4964979;28;20077;-69
2021/06/08 01:37:15;;;;;;;20.23;16.50;;;;;;;13.89;100.00;96911.59;4963610;28;20524;-67
2021/06/08 01:39:41;;;;;;;21.00;16.88;;;;;;;14.12;100.00;96937.09;4965037;28;20113;-68
2021/06/08 01:42:09;;;;;;;20.17;15.60;;;;;;;14.00;100.00;96912.41;4964514;28;20035;-69
2021/06/08 01:44:34;;;;;;;18.98;15.48;;;;;;;13.50;100.00;96873.31;4964976;28;20041;-70
2021/06/08 01:47:00;;;;;;;18.45;15.48;;;;;;;13.86;100.00;96941.03;4964791;28;20411;-69
2021/06/08 01:49:25;;;;;;;20.75;16.95;;;;;;;13.96;100.00;96933.91;4964994;28;20050;-69
2021/06/08 01:52:12;;;;;;;18.83;16.83;;;;;;;14.00;100.00;96937.47;4962943;28;20034;-67
2021/06/08 01:54:59;;;;;;;21.05;17.67;;;;;;;13.66;100.00;96943.34;4963548;28;20039;-70
2021/06/08 01:57:31;;;;;;;23.27;17.88;;;;;;;13.79;100.00;96935.44;4964844;28;20134;-69
2021/06/08 02:00:16;;;;;;;23.65;17.80;;;;;;;13.98;100.00;96948.19;4964764;28;20122;-70
2021/06/08 02:02:56;;;;;;;17.90;15.45;;;;;;;13.73;100.00;96939.78;4963327;28;20043;-69
2021/06/08 02:05:31;;;;;;;18.98;16.73;;;;;;;13.78;100.00;96938.59;4971748;28;20050;-69
2021/06/08 02:08:17;;;;;;;26.02;18.88;;;;;;;13.85;100.00;96933.06;4983955;28;20034;-68
2021/06/08 02:10:56;;;;;;;22.40;18.17;;;;;;;13.41;100.00;96853.44;4983789;28;20034;-70
2021/06/08 02:13:36;;;;;;;22.55;17.30;;;;;;;14.02;100.00;96947.00;4982741;28;20165;-69
2021/06/08 02:16:21;;;;;;;19.13;16.33;;;;;;;14.15;100.00;96931.53;4983513;28;20505;-68
2021/06/08 02:18:49;;;;;;;18.58;16.67;;;;;;;13.95;100.00;96904.44;4984013;28;20026;-69
2021/06/08 02:21:17;;;;;;;18.33;16.20;;;;;;;14.21;100.00;96934.72;4983576;28;20076;-70
2021/06/08 02:23:45;;;;;;;17.95;16.10;;;;;;;14.21;100.00;96940.31;4987857;28;20030;-68
2021/06/08 02:26:11;;;;;;;18.85;16.13;;;;;;;14.28;100.00;96941.13;4987573;28;20121;-68
2021/06/08 02:28:39;;;;;;;17.63;15.50;;;;;;;14.26;100.00;96942.69;4986284;28;20026;-69
2021/06/08 02:31:08;;;;;;;20.80;16.13;;;;;;;13.86;100.00;96887.31;4987605;28;20300;-69
2021/06/08 02:33:35;;;;;;;17.17;15.38;;;;;;;13.70;100.00;96868.22;4987918;28;20038;-68
2021/06/08 02:36:04;;;;;;;18.55;15.60;;;;;;;14.16;100.00;96937.91;4986048;28;20052;-69
2021/06/08 02:38:33;;;;;;;18.55;16.65;;;;;;;13.75;100.00;96872.59;4986266;28;20038;-69
2021/06/08 02:41:00;;;;;;;22.42;17.75;;;;;;;13.59;100.00;96954.44;4987530;28;20034;-68
2021/06/08 02:43:27;;;;;;;24.95;19.17;;;;;;;13.83;100.00;96941.00;4986413;28;20057;-69
2021/06/08 02:45:54;;;;;;;23.83;17.75;;;;;;;11.53;100.00;96587.44;4985722;28;20133;-68
2021/06/08 02:48:21;;;;;;;24.73;19.08;;;;;;;13.59;100.00;96893.22;4987565;28;20039;-69
2021/06/08 02:50:48;;;;;;;22.02;17.77;;;;;;;13.55;100.00;96878.50;4985749;28;20428;-68
2021/06/08 02:53:18;;;;;;;25.33;15.77;;;;;;;14.01;100.00;96941.84;4987548;28;20034;-67
2021/06/08 02:55:44;;;;;;;18.65;14.57;;;;;;;13.97;100.00;96943.84;4985355;28;20160;-69
2021/06/08 02:58:11;;;;;;;16.88;13.98;;;;;;;13.96;100.00;96929.09;4985105;28;20085;-67
2021/06/08 03:00:38;;;;;;;14.82;13.38;;;;;;;14.04;100.00;96952.19;4985321;28;20038;-67
2021/06/08 03:03:06;;;;;;;16.85;13.20;;;;;;;13.97;100.00;96938.25;4985392;28;20031;-67
2021/06/08 03:05:39;;;;;;;19.00;13.68;;;;;;;14.12;100.00;96962.16;4977935;28;20042;-67
2021/06/08 03:08:36;;;;;;;15.80;13.25;;;;;;;14.19;100.00;96953.81;4967973;28;20023;-68
2021/06/08 03:11:08;;;;;;;16.77;13.85;;;;;;;14.15;100.00;96953.00;4970430;28;20078;-67
2021/06/08 03:13:36;;;;;;;19.45;15.02;;;;;;;14.15;100.00;96958.56;4967512;28;20030;-68
2021/06/08 03:16:03;;;;;;;16.38;13.95;;;;;;;14.10;100.00;96956.19;4965797;28;20043;-68
2021/06/08 03:18:31;;;;;;;16.98;13.73;;;;;;;14.21;100.00;96965.38;4967591;28;20039;-68
2021/06/08 03:21:03;;;;;;;16.35;14.60;;;;;;;14.23;100.00;96962.97;4964703;28;20595;-68
2021/06/08 03:23:36;;;;;;;18.80;15.27;;;;;;;14.33;98.64;96970.59;4964372;28;20082;-67
2021/06/08 03:26:04;;;;;;;24.33;16.23;;;;;;;13.75;100.00;96897.66;4966121;28;20045;-68
2021/06/08 03:28:32;;;;;;;18.15;16.33;;;;;;;14.00;100.00;96909.63;4966258;28;20047;-67
2021/06/08 03:30:58;;;;;;;25.45;16.35;;;;;;;13.91;98.24;96870.22;4964376;28;20459;-68
2021/06/08 03:33:26;;;;;;;23.52;18.13;;;;;;;14.58;98.96;96969.41;4965989;28;20407;-65
2021/06/08 03:35:53;;;;;;;19.08;16.95;;;;;;;14.53;98.05;96941.13;4965714;28;20443;-65
2021/06/08 03:38:22;;;;;;;21.95;17.80;;;;;;;14.68;97.69;96948.31;4964596;28;21175;-66
2021/06/08 03:40:50;;;;;;;19.48;15.07;;;;;;;14.33;95.83;96878.63;4965485;28;20031;-66
2021/06/08 03:43:16;;;;;;;16.60;13.38;;;;;;;14.69;95.55;96927.56;4964237;28;20031;-66
2021/06/08 03:45:45;;;;;;;15.20;13.80;;;;;;;14.73;94.18;96911.66;4965510;28;20051;-69
2021/06/08 03:48:13;;;;;;;13.63;12.23;;;;;;;14.91;94.76;96934.72;4964745;28;20039;-67
2021/06/08 03:50:38;;;;;;;13.55;12.15;;;;;;;15.17;93.81;96951.03;4963851;28;20038;-67
2021/06/08 03:53:04;;;;;;;14.63;11.98;;;;;;;15.28;93.60;96968.53;4965692;28;20457;-67
2021/06/08 03:55:29;;;;;;;14.27;11.52;;;;;;;15.39;93.17;96972.13;4963933;28;20050;-67
2021/06/08 03:57:56;;;;;;;16.10;12.07;;;;;;;15.28;92.79;96937.03;4965589;28;20046;-67
2021/06/08 04:00:25;;;;;;;17.95;13.43;;;;;;;14.06;95.72;96878.19;4965404;28;20035;-67
2021/06/08 04:02:51;;;;;;;16.10;13.23;;;;;;;12.49;95.62;96595.78;4964111;28;20038;-68
2021/06/08 04:05:18;;;;;;;17.63;13.77;;;;;;;14.85;95.58;96948.28;4971098;28;20469;-68
2021/06/08 04:07:46;;;;;;;20.70;13.73;;;;;;;15.29;95.33;96972.09;4984843;28;20037;-67
2021/06/08 04:10:19;;;;;;;16.92;13.50;;;;;;;15.57;93.91;96972.84;4984679;28;20057;-67
2021/06/08 04:12:45;;;;;;;14.65;13.15;;;;;;;15.73;93.38;96981.56;4983018;28;20533;-68
2021/06/08 04:15:12;;;;;;;14.23;12.75;;;;;;;15.91;92.41;96987.06;4983878;28;20501;-65
2021/06/08 04:17:38;;;;;;;13.98;12.68;;;;;;;16.11;91.03;96980.56;4984537;28;20041;-64
2021/06/08 04:20:05;;;;;;;13.52;10.80;;;;;;;15.75;90.78;96895.38;4984038;28;20035;-67
2021/06/08 04:22:32;;;;;;;13.35;11.20;;;;;;;16.01;89.31;96903.19;4452614;28;15204663;-66
2021/06/08 04:24:58;;;;;;;12.57;11.30;;;;;;;16.40;90.05;96975.59;4984105;28;20049;-67
2021/06/08 04:27:25;;;;;;;16.02;11.90;;;;;;;16.61;89.02;96987.47;4985333;28;20040;-67
2021/06/08 04:29:52;;;;;;;11.80;10.60;;;;;;;16.82;88.04;96980.91;4985217;28;20061;-66
2021/06/08 04:32:18;;;;;;;12.15;10.95;;;;;;;16.89;86.93;96980.03;4985238;28;20053;-68
2021/06/08 04:34:48;;;;;;;12.77;11.52;;;;;;;17.03;85.88;96979.91;4983541;28;20045;-67
2021/06/08 04:37:14;;;;;;;18.42;12.00;;;;;;;16.52;84.44;96886.47;4985568;28;20034;-67
2021/06/08 04:39:40;;;;;;;14.13;12.60;;;;;;;16.89;84.75;96935.28;4985065;28;20102;-67
2021/06/08 04:42:06;;;;;;;13.50;12.10;;;;;;;16.13;84.26;96792.94;4984367;28;20065;-65
2021/06/08 04:44:33;;;;;;;17.38;12.43;;;;;;;17.47;83.70;96982.69;4983261;28;20464;-68
2021/06/08 04:46:58;;;;;;;18.42;12.25;;;;;;;17.47;82.85;96979.91;4985142;28;20083;-70
2021/06/08 04:49:24;;;;;;;17.52;12.38;;;;;;;16.78;83.18;96856.25;4985137;28;20185;-71
2021/06/08 04:51:49;;;;;;;15.52;11.73;;;;;;;17.68;82.45;96982.47;4984890;28;20034;-69
2021/06/08 04:54:24;;;;;;;13.77;12.48;;;;;;;17.91;81.77;96980.56;4984731;28;20026;-67
2021/06/08 04:56:50;;;;;;;13.00;11.70;;;;;;;17.65;81.19;96904.88;4984762;28;20157;-69
2021/06/08 04:59:21;;;;;;;13.82;11.27;;;;;;;18.17;80.81;96987.44;4985569;28;20767;-68
2021/06/08 05:04:54;;;;;;;14.80;12.45;;;;;;;18.02;83.17;96986.03;4983018;28;20057;-67
2021/06/08 05:07:21;;;;;;;13.85;12.55;;;;;;;17.65;84.24;96944.09;4966058;28;20093;-67
2021/06/08 05:10:06;;;;;;;14.43;13.02;;;;;;;18.29;82.43;96989.69;4965423;28;20178;-68
2021/06/08 05:12:33;;;;;;;15.30;12.48;;;;;;;18.20;80.83;96968.97;4965509;28;20093;-67
2021/06/08 05:15:00;;;;;;;18.92;12.52;;;;;;;17.62;82.79;96905.72;4965293;28;20093;-68
2021/06/08 05:17:27;;;;;;;14.02;12.50;;;;;;;18.25;83.13;96983.34;4963537;28;20035;-66
2021/06/08 05:19:53;;;;;;;14.80;12.63;;;;;;;18.46;82.04;96987.88;4965263;28;20074;-68
2021/06/08 05:22:23;;;;;;;15.55;13.98;;;;;;;18.58;82.16;96984.47;4964909;28;20154;-67
2021/06/08 05:24:54;;;;;;;14.48;12.93;;;;;;;18.55;82.48;96986.13;4965274;28;20108;-68
2021/06/08 05:27:22;;;;;;;13.82;12.15;;;;;;;18.73;82.74;96992.25;4963404;28;20099;-70
2021/06/08 05:29:53;;;;;;;15.15;13.57;;;;;;;18.76;82.83;96996.22;4965110;28;20034;-67
2021/06/08 05:32:18;;;;;;;14.55;12.68;;;;;;;18.46;83.95;96949.41;4963358;28;20126;-67
2021/06/08 05:34:45;;;;;;;15.20;12.75;;;;;;;19.09;81.78;97000.91;4964984;28;20492;-69
2021/06/08 05:37:13;;;;;;;13.77;12.48;;;;;;;19.07;82.10;97000.53;4963330;28;20038;-68
2021/06/08 05:39:39;;;;;;;19.45;12.98;;;;;;;18.92;82.30;96973.91;4965780;28;20035;-69
2021/06/08 05:42:10;;;;;;;13.65;12.25;;;;;;;18.60;80.06;96850.97;4964558;28;20034;-68
2021/06/08 05:44:37;;;;;;;17.52;14.10;;;;;;;19.58;80.43;96990.81;4964687;28;20418;-70
2021/06/08 05:47:07;;;;;;;17.77;13.15;;;;;;;19.71;79.07;96994.56;4964734;28;20112;-69
2021/06/08 05:49:35;;;;;;;16.63;12.82;;;;;;;19.81;78.88;96979.50;4964874;28;20046;-67
2021/06/08 05:52:01;;;;;;;14.70;13.20;;;;;;;20.18;76.76;96985.59;4964859;28;20125;-67
2021/06/08 05:54:28;;;;;;;13.88;12.48;;;;;;;20.18;75.82;96962.28;4960238;28;20449;-67
2021/06/08 05:56:54;;;;;;;14.73;12.88;;;;;;;20.32;76.72;96990.91;4963110;28;20101;-59
2021/06/08 05:59:20;;;;;;;13.43;12.15;;;;;;;20.39;75.96;96995.59;4963913;28;20077;-66
2021/06/08 06:01:47;;;;;;;12.77;11.57;;;;;;;20.57;75.03;96984.69;4962864;28;20490;-59
2021/06/08 06:04:15;;;;;;;12.93;11.73;;;;;;;20.08;74.27;96888.13;4965133;28;20494;-61
2021/06/08 06:06:42;;;;;;;13.35;12.05;;;;;;;20.98;73.11;96987.75;4964172;28;20043;-65
2021/06/08 06:09:08;;;;;;;12.65;11.45;;;;;;;20.95;72.16;96966.09;4960176;28;20047;-62
2021/06/08 06:11:35;;;;;;;13.38;12.13;;;;;;;20.76;73.67;96964.13;4963649;28;20055;-59
2021/06/08 06:14:02;;;;;;;14.48;12.65;;;;;;;20.77;73.43;96920.69;4963821;28;20035;-59
2021/06/08 06:16:30;;;;;;;11.35;10.35;;;;;;;21.34;71.84;96988.44;4964540;28;20141;-57
2021/06/08 06:18:57;;;;;;;13.00;11.73;;;;;;;21.15;72.06;96957.56;4964591;28;20023;-69
2021/06/08 06:21:25;;;;;;;12.50;11.30;;;;;;;21.52;72.15;96991.59;4963978;28;20054;-57
2021/06/08 06:23:50;;;;;;;12.93;11.63;;;;;;;20.04;72.88;96746.03;4963565;28;20037;-66
2021/06/08 06:26:18;;;;;;;14.38;11.60;;;;;;;21.79;72.69;96983.63;4962035;28;20054;-61
2021/06/08 06:28:44;;;;;;;13.25;11.88;;;;;;;22.01;71.61;96986.63;4962961;28;20109;-64
2021/06/08 06:31:10;;;;;;;12.45;11.40;;;;;;;21.92;70.72;96981.66;4977602;28;20053;-65
2021/06/08 06:33:36;;;;;;;13.20;11.85;;;;;;;21.81;70.34;96967.06;4964339;28;20053;-68
2021/06/08 06:36:06;;;;;;;12.27;11.07;;;;;;;22.23;69.45;96982.75;4963406;28;20039;-67
2021/06/08 06:38:34;;;;;;;13.13;11.60;;;;;;;22.10;69.09;96916.22;4962776;28;20039;-66
2021/06/08 06:41:06;;;;;;;10.90;10.00;;;;;;;22.68;66.32;96979.78;4963825;28;20045;-56
2021/06/08 06:43:34;;;;;;;12.13;10.80;;;;;;;22.79;66.33;96973.78;4962695;28;20089;-68
2021/06/08 06:46:00;;;;;;;11.00;10.18;;;;;;;22.75;64.12;96940.00;4962465;28;20413;-62
2021/06/08 06:48:25;;;;;;;13.18;11.98;;;;;;;23.27;63.89;96965.72;4964077;28;20045;-63
2021/06/08 06:50:53;;;;;;;11.93;10.52;;;;;;;23.39;63.23;96961.31;4962262;28;20403;-63
2021/06/08 06:53:19;;;;;;;10.98;10.10;;;;;;;23.11;61.93;96900.84;4964712;28;20176;-65
2021/06/08 06:55:52;;;;;;;11.80;10.65;;;;;;;23.72;63.95;96962.53;4953617;28;20089;-69
2021/06/08 06:58:19;;;;;;;13.55;12.25;;;;;;;23.91;63.30;96955.78;4964258;28;20106;-70
2021/06/08 07:00:46;;;;;;;12.93;11.43;;;;;;;23.81;63.51;96945.63;4963829;28;20051;-60
2021/06/08 07:03:14;;;;;;;12.80;11.45;;;;;;;24.21;61.64;96949.41;4964007;28;20113;-58
2021/06/08 07:05:43;;;;;;;13.00;11.65;;;;;;;24.40;60.90;96945.44;4963294;28;20122;-63
2021/06/08 07:08:09;;;;;;;11.88;10.65;;;;;;;23.89;60.64;96857.22;4963492;28;20034;-57
2021/06/08 07:10:35;;;;;;;12.15;11.10;;;;;;;24.38;61.06;96913.97;4966704;28;20035;-64
2021/06/08 07:13:05;;;;;;;12.68;11.38;;;;;;;24.93;60.10;96938.44;4964612;28;20496;-60
2021/06/08 07:15:32;;;;;;;11.90;10.80;;;;;;;24.28;58.45;96844.38;4965637;28;20478;-60
2021/06/08 07:17:58;;;;;;;12.27;11.00;;;;;;;25.24;57.68;96946.88;4975758;28;20141;-65
2021/06/08 07:20:26;;;;;;;11.50;10.38;;;;;;;25.38;56.95;96940.63;4966765;28;20543;-62
2021/06/08 07:22:52;;;;;;;11.55;10.65;;;;;;;25.70;56.00;96944.94;4951280;28;20118;-69
2021/06/08 07:25:19;;;;;;;11.27;10.48;;;;;;;23.72;54.09;96615.41;4966387;28;20034;-70
2021/06/08 07:27:46;;;;;;;12.13;11.13;;;;;;;25.72;55.60;96936.72;4967579;28;20057;-59
2021/06/08 07:30:14;;;;;;;12.00;10.77;;;;;;;25.60;55.11;96901.56;4966743;28;20034;-68
2021/06/08 07:33:12;;;;;;;10.32;9.63;;;;;;;26.01;52.34;96937.03;4967960;28;20570;-69
2021/06/08 07:36:06;;;;;;;12.77;11.48;;;;;;;26.17;50.76;96933.88;4965975;28;20086;-68
2021/06/08 07:38:37;;;;;;;12.60;11.50;;;;;;;26.11;51.11;96928.06;4967533;28;20031;-58
2021/06/08 07:41:08;;;;;;;11.13;10.23;;;;;;;26.33;51.42;96927.84;4965365;28;20042;-67
2021/06/08 07:43:44;;;;;;;13.70;11.32;;;;;;;26.67;48.19;96927.44;4967188;28;20037;-61
2021/06/08 07:46:14;;;;;;;10.50;9.60;;;;;;;26.68;48.28;96923.34;4966797;28;20047;-69
2021/06/08 07:48:43;;;;;;;11.63;10.30;;;;;;;27.05;48.83;96927.59;4967361;28;20057;-60
2021/06/08 07:51:10;;;;;;;9.95;8.68;;;;;;;27.42;44.24;96911.09;4966912;28;20488;-68
2021/06/08 07:53:36;;;;;;;9.77;9.07;;;;;;;27.50;45.20;96924.50;4965734;28;20031;-60
2021/06/08 07:56:04;;;;;;;10.45;9.45;;;;;;;27.10;43.00;96875.72;4966723;28;20126;-69
2021/06/08 07:58:29;;;;;;;12.43;9.48;;;;;;;25.89;44.56;96929.47;4965794;28;20047;-60
2021/06/08 08:00:57;;;;;;;9.63;8.70;;;;;;;26.74;43.91;96918.59;4966295;28;20046;-59
2021/06/08 08:03:28;;;;;;;8.75;8.15;;;;;;;27.19;43.46;96917.56;4966657;28;20445;-69
2021/06/08 08:05:58;;;;;;;11.70;10.18;;;;;;;26.26;44.68;96851.47;4972272;28;20480;-60
2021/06/08 08:08:24;;;;;;;9.43;8.50;;;;;;;26.19;45.23;96920.00;4984888;28;20045;-60
2021/06/08 08:10:51;;;;;;;12.77;7.82;;;;;;;26.77;44.69;96914.78;4985721;28;20038;-61
2021/06/08 08:13:22;;;;;;;7.43;6.72;;;;;;;27.18;44.56;96913.94;4984668;28;20417;-68
2021/06/08 08:15:52;;;;;;;10.07;7.50;;;;;;;26.91;43.88;96882.78;4978494;28;20612;-64
2021/06/08 08:18:19;;;;;;;7.95;7.03;;;;;;;27.45;43.12;96899.56;4965792;28;20033;-65
2021/06/08 08:20:53;;;;;;;20.63;13.20;;;;;;;27.51;43.63;96894.75;4960932;28;20055;-60
2021/06/08 08:23:21;;;;;;;9.65;7.97;;;;;;;26.24;45.66;96910.84;4955670;28;20058;-61
2021/06/08 08:25:47;;;;;;;18.08;12.32;;;;;;;25.27;46.19;96838.97;4965260;28;20068;-67
2021/06/08 08:28:13;;;;;;;20.65;10.65;;;;;;;23.56;47.86;96629.00;4961180;28;20039;-73
2021/06/08 08:30:39;;;;;;;11.32;7.97;;;;;;;25.65;47.56;96914.34;4946751;28;20122;-63
2021/06/08 08:33:05;;;;;;;7.00;6.40;;;;;;;25.61;47.32;96899.53;4947397;28;20031;-63
2021/06/08 08:35:32;;;;;;;10.45;7.03;;;;;;;25.89;46.77;96895.41;4964919;28;20144;-64
2021/06/08 08:37:58;;;;;;;8.02;6.80;;;;;;;25.61;46.63;96859.81;4960789;28;20035;-67
2021/06/08 08:40:24;;;;;;;6.80;6.05;;;;;;;25.18;49.87;96929.69;4963371;28;20512;-64
2021/06/08 08:42:50;;;;;;;7.28;6.22;;;;;;;24.43;53.64;96927.53;4965351;28;20045;-60
2021/06/08 08:45:16;;;;;;;9.00;6.97;;;;;;;23.36;54.87;96809.53;4965521;28;20030;-64
2021/06/08 08:47:44;;;;;;;7.65;7.00;;;;;;;23.84;55.19;96916.41;4965277;28;20512;-65
2021/06/08 08:50:12;;;;;;;12.32;7.68;;;;;;;23.59;55.10;96931.47;4960495;28;20039;-59
2021/06/08 08:52:42;;;;;;;13.80;7.00;;;;;;;22.98;58.05;96880.31;4964615;28;20070;-68
2021/06/08 08:55:09;;;;;;;13.55;7.70;;;;;;;22.15;63.46;96902.38;4955832;28;20485;-66
2021/06/08 08:57:35;;;;;;;21.15;8.18;;;;;;;19.11;70.32;96569.63;4946147;28;20123;-60
2021/06/08 09:00:03;;;;;;;18.65;8.98;;;;;;;20.67;75.26;96945.06;4945824;28;20036;-60
2021/06/08 09:02:31;;;;;;;16.33;9.57;;;;;;;19.82;83.21;96888.31;4945461;28;20561;-59
2021/06/08 09:04:58;;;;;;;14.70;9.63;;;;;;;19.81;85.53;96948.56;4943982;28;20031;-61
2021/06/08 09:07:24;;;;;;;17.75;10.55;;;;;;;19.61;88.61;96944.97;4944979;28;20065;-60
2021/06/08 09:09:50;;;;;;;18.73;11.95;;;;;;;19.28;92.76;96944.78;4945225;28;20438;-65
2021/06/08 09:12:15;;;;;;;13.65;12.15;;;;;;;19.25;96.37;96962.47;4945120;28;20046;-67
2021/06/08 09:14:41;;;;;;;20.48;12.73;;;;;;;18.45;96.88;96849.63;4945906;28;20490;-66
2021/06/08 09:17:07;;;;;;;15.45;11.57;;;;;;;19.14;98.91;96966.72;4946472;28;20043;-61
2021/06/08 09:19:34;;;;;;;19.15;12.05;;;;;;;19.09;97.55;96967.19;4946807;28;20039;-66
2021/06/08 09:22:00;;;;;;;15.15;10.77;;;;;;;18.94;97.39;96969.44;4945311;28;20138;-60
2021/06/08 09:24:28;;;;;;;13.23;11.85;;;;;;;18.94;97.15;96969.44;4946130;28;20162;-64
2021/06/08 09:26:55;;;;;;;17.13;10.30;;;;;;;18.87;98.55;96969.59;4946009;28;20043;-65
2021/06/08 09:29:35;;;;;;;16.33;9.77;;;;;;;18.73;95.46;96975.41;4946513;28;20378;-67
2021/06/08 09:32:18;;;;;;;12.30;9.38;;;;;;;18.57;96.16;96955.66;4944086;28;20039;-67
2021/06/08 09:34:53;;;;;;;18.07;10.10;;;;;;;18.53;96.05;96960.50;4944446;28;20039;-67
2021/06/08 09:37:31;;;;;;;12.30;9.45;;;;;;;18.42;96.73;96953.47;4946276;28;20039;-68
2021/06/08 09:39:57;;;;;;;10.30;8.20;;;;;;;18.53;94.51;96951.28;4945681;28;20457;-66
2021/06/08 09:42:30;;;;;;;8.82;7.72;;;;;;;18.40;98.12;96900.59;4943766;28;20051;-67
2021/06/08 09:45:17;;;;;;;8.90;6.90;;;;;;;18.53;91.44;96892.38;4944215;29;20027;-66
2021/06/08 09:47:43;;;;;;;8.27;7.47;;;;;;;18.92;91.96;96948.66;4945798;28;20134;-61
2021/06/08 09:50:28;;;;;;;10.88;8.15;;;;;;;19.16;94.39;96945.41;4957363;28;20437;-67
2021/06/08 09:53:23;;;;;;;13.60;10.35;;;;;;;19.52;99.17;96949.16;4965530;28;20118;-67
2021/06/08 09:56:07;;;;;;;11.85;10.23;;;;;;;19.87;99.32;96946.88;4962651;28;20126;-67
2021/06/08 09:58:33;;;;;;;;;;;;;;;20.10;100.00;96943.94;4964487;28;20426;-61
2021/06/08 10:01:10;;;;;;;12.93;9.50;;;;;;;20.53;96.19;96950.22;4964607;28;20224;-66
2021/06/08 10:03:45;;;;;;;16.55;12.13;;;;;;;21.05;96.88;96942.53;4963620;28;20038;-65
2021/06/08 10:06:13;;;;;;;14.77;10.10;;;;;;;21.47;90.20;96957.50;4967144;28;20042;-61
2021/06/08 10:09:03;;;;;;;15.73;11.82;;;;;;;22.02;89.31;96955.16;4984177;28;20023;-61
2021/06/08 10:11:33;;;;;;;8.82;6.78;;;;;;;22.67;76.21;96944.31;4983966;28;20031;-66
2021/06/08 10:14:13;;;;;;;11.57;6.53;;;;;;;22.82;73.40;96939.00;4984244;28;20034;-67
2021/06/08 10:16:39;;;;;;;8.93;6.10;;;;;;;22.33;71.40;96829.22;4983903;28;20053;-66
2021/06/08 10:19:06;;;;;;;6.43;5.22;;;;;;;22.96;69.58;96898.97;4983933;28;20105;-61
2021/06/08 10:21:48;;;;;;;6.38;5.18;;;;;;;23.43;67.46;96922.38;4983548;28;20066;-65
2021/06/08 10:24:19;;;;;;;6.60;4.95;;;;;;;23.19;67.48;96881.63;4983884;28;20149;-62
2021/06/08 10:26:50;;;;;;;7.20;5.10;;;;;;;23.35;68.62;96913.34;4981437;28;20454;-66
2021/06/08 10:29:17;;;;;;;4.90;4.50;;;;;;;23.29;64.93;96877.63;4983711;28;20034;-67
2021/06/08 10:31:43;;;;;;;5.38;4.60;;;;;;;23.82;65.38;96927.44;4981617;28;20085;-67
2021/06/08 10:34:11;;;;;;;7.38;5.75;;;;;;;24.19;64.53;96934.94;4983819;28;20046;-60
2021/06/08 10:36:39;;;;;;;6.22;4.75;;;;;;;24.67;63.09;96936.31;4981567;28;20133;-60
2021/06/08 10:39:11;;;;;;;5.82;5.32;;;;;;;25.15;66.63;96944.81;4983958;28;20059;-66
2021/06/08 10:41:39;;;;;;;5.88;5.28;;;;;;;24.88;60.22;96847.59;4983903;28;20027;-60
2021/06/08 10:44:06;;;;;;;6.90;5.55;;;;;;;25.41;60.39;96899.19;4986939;28;20042;-60
2021/06/08 10:46:36;;;;;;;6.65;5.70;;;;;;;26.01;64.83;96948.41;4985121;28;20042;-61
2021/06/08 10:49:04;;;;;;;6.45;5.38;;;;;;;26.09;59.81;96938.31;4984119;28;20457;-66
2021/06/08 10:51:33;;;;;;;7.88;4.80;;;;;;;26.19;55.72;96937.03;4966985;28;20541;-60
2021/06/08 10:53:58;;;;;;;6.07;5.47;;;;;;;26.52;57.22;96938.66;4966035;28;20034;-61
2021/06/08 10:56:29;;;;;;;6.13;5.53;;;;;;;26.70;51.07;96935.81;4967162;28;20403;-59
2021/06/08 10:59:15;;;;;;;7.03;5.00;;;;;;;26.76;50.11;96938.78;4968090;28;20035;-60
2021/06/08 11:01:41;;;;;;;6.40;5.80;;;;;;;27.47;53.34;96928.31;4967603;28;20105;-60
2021/06/08 11:04:28;;;;;;;5.70;5.18;;;;;;;26.63;52.11;96916.22;4966637;28;20074;-68
2021/06/08 11:06:58;;;;;;;5.88;5.28;;;;;;;26.27;51.54;96899.28;4962440;28;20049;-59
2021/06/08 11:09:24;;;;;;;6.53;5.32;;;;;;;26.74;52.11;96929.94;4948330;29;20564;-64
2021/06/08 11:11:57;;;;;;;5.43;4.97;;;;;;;26.61;52.60;96932.19;4954727;28;20085;-65
2021/06/08 11:14:32;;;;;;;;;;;;;;;26.20;52.32;96930.06;4967903;28;20062;-61
2021/06/08 11:17:02;;;;;;;5.72;5.13;;;;;;;26.06;50.64;96927.91;4967227;28;19926;-68
2021/06/08 11:19:48;;;;;;;6.32;5.40;;;;;;;26.22;51.46;96925.50;4966700;28;20054;-60
2021/06/08 11:22:17;;;;;;;5.45;4.95;;;;;;;26.72;49.86;96926.78;4956977;28;20059;-63
2021/06/08 11:24:46;;;;;;;7.10;6.20;;;;;;;25.90;48.61;96814.66;4953304;28;20445;-62
2021/06/08 11:27:12;;;;;;;5.13;4.60;;;;;;;26.10;51.78;96928.50;4958454;28;20043;-60
2021/06/08 11:29:56;;;;;;;10.15;7.53;;;;;;;26.06;49.98;96922.22;4955658;28;20081;-68
2021/06/08 11:32:28;;;;;;;5.20;4.70;;;;;;;25.70;50.83;96916.53;4966677;28;20078;-60